sensor_id;sensor_type;location;lat;lon;timestamp;pressure;altitude;pressure_sealevel;temperature;humidity
60170;BME280;46042;49.444;6.862;2023-02-17T00:00:54;99489.00;;;6.69;100.00
60170;BME280;46042;49.444;6.862;2023-02-17T00:03:21;99484.03;;;6.62;100.00
60170;BME280;46042;49.444;6.862;2023-02-17T00:05:49;99478.88;;;6.59;100.00
60170;BME280;46042;49.444;6.862;2023-02-17T00:08:16;99483.31;;;6.57;100.00
60170;BME280;46042;49.444;6.862;2023-02-17T00:10:43;99478.00;;;6.60;100.00
60170;BME280;46042;49.444;6.862;2023-02-17T00:13:10;99470.97;;;6.60;100.00
60170;BME280;46042;49.444;6.862;2023-02-17T00:15:39;99472.53;;;6.66;100.00
60170;BME280;46042;49.444;6.862;2023-02-17T00:18:06;99465.44;;;6.69;100.00
60170;BME280;46042;49.444;6.862;2023-02-17T00:20:32;99471.66;;;6.65;100.00
60170;BME280;46042;49.444;6.862;2023-02-17T00:22:59;99472.13;;;6.77;100.00
60170;BME280;46042;49.444;6.862;2023-02-17T00:25:25;99468.84;;;6.72;100.00
60170;BME280;46042;49.444;6.862;2023-02-17T00:27:52;99465.03;;;6.80;100.00
60170;BME280;46042;49.444;6.862;2023-02-17T00:30:20;99465.03;;;6.80;100.00
60170;BME280;46042;49.444;6.862;2023-02-17T00:32:47;99466.06;;;6.76;100.00
60170;BME280;46042;49.444;6.862;2023-02-17T00:35:14;99460.81;;;6.76;100.00
60170;BME280;46042;49.444;6.862;2023-02-17T00:37:41;99453.63;;;6.81;100.00
60170;BME280;46042;49.444;6.862;2023-02-17T00:40:12;99442.16;;;6.84;100.00
60170;BME280;46042;49.444;6.862;2023-02-17T00:42:39;99441.22;;;6.87;100.00
60170;BME280;46042;49.444;6.862;2023-02-17T00:45:06;99448.03;;;6.91;100.00
60170;BME280;46042;49.444;6.862;2023-02-17T00:47:33;99453.34;;;6.89;100.00
60170;BME280;46042;49.444;6.862;2023-02-17T00:50:00;99455.97;;;6.89;100.00
60170;BME280;46042;49.444;6.862;2023-02-17T00:52:26;99457.69;;;6.90;100.00
60170;BME280;46042;49.444;6.862;2023-02-17T00:54:53;99459.50;;;6.88;100.00
60170;BME280;46042;49.444;6.862;2023-02-17T00:57:20;99472.47;;;6.91;100.00
60170;BME280;46042;49.444;6.862;2023-02-17T00:59:46;99469.69;;;6.96;100.00
60170;BME280;46042;49.444;6.862;2023-02-17T01:02:13;99464.44;;;6.96;100.00
60170;BME280;46042;49.444;6.862;2023-02-17T01:04:39;99467.78;;;7.00;100.00
60170;BME280;46042;49.444;6.862;2023-02-17T01:07:06;99475.72;;;6.98;100.00
60170;BME280;46042;49.444;6.862;2023-02-17T01:09:33;99464.38;;;6.97;100.00
60170;BME280;46042;49.444;6.862;2023-02-17T01:11:59;99474.72;;;7.01;100.00
60170;BME280;46042;49.444;6.862;2023-02-17T01:14:26;99478.28;;;7.00;100.00
60170;BME280;46042;49.444;6.862;2023-02-17T01:16:52;99480.72;;;7.04;100.00
60170;BME280;46042;49.444;6.862;2023-02-17T01:19:19;99479.81;;;7.05;100.00
60170;BME280;46042;49.444;6.862;2023-02-17T01:21:46;99467.56;;;7.06;100.00
60170;BME280;46042;49.444;6.862;2023-02-17T01:24:12;99478.78;;;7.09;100.00
60170;BME280;46042;49.444;6.862;2023-02-17T01:26:39;99471.78;;;7.10;100.00
60170;BME280;46042;49.444;6.862;2023-02-17T01:29:06;99466.50;;;7.11;100.00
60170;BME280;46042;49.444;6.862;2023-02-17T01:31:33;99469.13;;;7.11;100.00
60170;BME280;46042;49.444;6.862;2023-02-17T01:34:02;99460.34;;;7.13;100.00
60170;BME280;46042;49.444;6.862;2023-02-17T01:36:30;99455.03;;;7.14;100.00
60170;BME280;46042;49.444;6.862;2023-02-17T01:38:56;99452.41;;;7.14;100.00
60170;BME280;46042;49.444;6.862;2023-02-17T01:41:24;99452.41;;;7.14;100.00
60170;BME280;46042;49.444;6.862;2023-02-17T01:46:42;99438.50;;;7.12;100.00
60170;BME280;46042;49.444;6.862;2023-02-17T01:49:27;99432.44;;;7.11;100.00
60170;BME280;46042;49.444;6.862;2023-02-17T01:52:19;99433.28;;;7.12;100.00
60170;BME280;46042;49.444;6.862;2023-02-17T01:54:57;99442.09;;;7.09;100.00
60170;BME280;46042;49.444;6.862;2023-02-17T01:57:26;99434.22;;;7.09;100.00
60170;BME280;46042;49.444;6.862;2023-02-17T01:59:55;99439.47;;;7.09;100.00
60170;BME280;46042;49.444;6.862;2023-02-17T02:02:22;99431.56;;;7.11;100.00
60170;BME280;46042;49.444;6.862;2023-02-17T02:04:51;99432.44;;;7.11;100.00
60170;BME280;46042;49.444;6.862;2023-02-17T02:07:31;99430.72;;;7.10;100.00
60170;BME280;46042;49.444;6.862;2023-02-17T02:09:59;99423.69;;;7.11;100.00
60170;BME280;46042;49.444;6.862;2023-02-17T02:12:31;99419.34;;;7.11;100.00
60170;BME280;46042;49.444;6.862;2023-02-17T02:15:01;99415.78;;;7.13;100.00
60170;BME280;46042;49.444;6.862;2023-02-17T02:34:55;99389.34;;;7.19;100.00
60170;BME280;46042;49.444;6.862;2023-02-17T02:37:33;99391.97;;;7.19;100.00
60170;BME280;46042;49.444;6.862;2023-02-17T02:40:04;99384.88;;;7.21;100.00
60170;BME280;46042;49.444;6.862;2023-02-17T02:42:33;99384.06;;;7.20;100.00
60170;BME280;46042;49.444;6.862;2023-02-17T02:45:00;99382.34;;;7.19;100.00
60170;BME280;46042;49.444;6.862;2023-02-17T02:47:47;99386.66;;;7.20;100.00
60170;BME280;46042;49.444;6.862;2023-02-17T02:53:14;99377.03;;;7.21;100.00
60170;BME280;46042;49.444;6.862;2023-02-17T02:55:56;99376.19;;;7.20;100.00
60170;BME280;46042;49.444;6.862;2023-02-17T02:58:31;99381.31;;;7.23;100.00
60170;BME280;46042;49.444;6.862;2023-02-17T03:01:12;99375.16;;;7.24;100.00
60170;BME280;46042;49.444;6.862;2023-02-17T03:07:12;99365.50;;;7.25;100.00
60170;BME280;46042;49.444;6.862;2023-02-17T03:09:51;99364.66;;;7.24;100.00
60170;BME280;46042;49.444;6.862;2023-02-17T03:12:19;99355.09;;;7.23;100.00
60170;BME280;46042;49.444;6.862;2023-02-17T03:14:56;99361.13;;;7.25;100.00
60170;BME280;46042;49.444;6.862;2023-02-17T03:17:25;99361.13;;;7.25;100.00
60170;BME280;46042;49.444;6.862;2023-02-17T03:19:51;99361.97;;;7.26;100.00
60170;BME280;46042;49.444;6.862;2023-02-17T03:22:21;99368.97;;;7.25;100.00
60170;BME280;46042;49.444;6.862;2023-02-17T03:24:48;99359.41;;;7.24;100.00
60170;BME280;46042;49.444;6.862;2023-02-17T03:27:14;99355.00;;;7.25;100.00
60170;BME280;46042;49.444;6.862;2023-02-17T03:29:41;99364.66;;;7.24;100.00
60170;BME280;46042;49.444;6.862;2023-02-17T03:32:08;99359.41;;;7.24;100.00
60170;BME280;46042;49.444;6.862;2023-02-17T03:34:35;99359.34;;;7.26;100.00
60170;BME280;46042;49.444;6.862;2023-02-17T03:37:02;99365.44;;;7.26;100.00
60170;BME280;46042;49.444;6.862;2023-02-17T03:39:29;99354.19;;;7.24;100.00
60170;BME280;46042;49.444;6.862;2023-02-17T03:41:56;99352.41;;;7.25;100.00
60170;BME280;46042;49.444;6.862;2023-02-17T03:44:23;99348.06;;;7.24;100.00
60170;BME280;46042;49.444;6.862;2023-02-17T03:46:50;99354.19;;;7.24;100.00
60170;BME280;46042;49.444;6.862;2023-02-17T03:49:16;99352.41;;;7.25;100.00
60170;BME280;46042;49.444;6.862;2023-02-17T03:51:43;99354.84;;;7.30;100.00
60170;BME280;46042;49.444;6.862;2023-02-17T03:54:10;99354.91;;;7.28;100.00
60170;BME280;46042;49.444;6.862;2023-02-17T03:56:36;99351.28;;;7.31;100.00
60170;BME280;46042;49.444;6.862;2023-02-17T03:59:03;99358.38;;;7.29;100.00
60170;BME280;46042;49.444;6.862;2023-02-17T04:01:30;99366.22;;;7.29;100.00
60170;BME280;46042;49.444;6.862;2023-02-17T04:03:56;99362.69;;;7.30;100.00
60170;BME280;46042;49.444;6.862;2023-02-17T04:06:23;99368.81;;;7.30;100.00
60170;BME280;46042;49.444;6.862;2023-02-17T04:08:50;99367.94;;;7.30;100.00
60170;BME280;46042;49.444;6.862;2023-02-17T04:11:17;99370.56;;;7.30;100.00
60170;BME280;46042;49.444;6.862;2023-02-17T04:13:43;99363.56;;;7.30;100.00
60170;BME280;46042;49.444;6.862;2023-02-17T04:16:11;99380.13;;;7.31;100.00
60170;BME280;46042;49.444;6.862;2023-02-17T04:18:38;99380.13;;;7.31;100.00
60170;BME280;46042;49.444;6.862;2023-02-17T04:21:05;99378.38;;;7.31;100.00
60170;BME280;46042;49.444;6.862;2023-02-17T04:23:34;99380.13;;;7.31;100.00
60170;BME280;46042;49.444;6.862;2023-02-17T04:26:03;99386.22;;;7.31;100.00
60170;BME280;46042;49.444;6.862;2023-02-17T04:28:30;99384.59;;;7.29;100.00
60170;BME280;46042;49.444;6.862;2023-02-17T04:30:58;99392.31;;;7.32;100.00
60170;BME280;46042;49.444;6.862;2023-02-17T04:33:25;99380.91;;;7.33;100.00
60170;BME280;46042;49.444;6.862;2023-02-17T04:35:52;99382.63;;;7.34;100.00
60170;BME280;46042;49.444;6.862;2023-02-17T04:38:28;99383.53;;;7.33;100.00
60170;BME280;46042;49.444;6.862;2023-02-17T04:40:56;99383.53;;;7.33;100.00
60170;BME280;46042;49.444;6.862;2023-02-17T04:43:24;99379.28;;;7.30;100.00
60170;BME280;46042;49.444;6.862;2023-02-17T04:45:51;99382.88;;;7.28;100.00
60170;BME280;46042;49.444;6.862;2023-02-17T04:48:18;99387.06;;;7.32;100.00
60170;BME280;46042;49.444;6.862;2023-02-17T04:50:45;99383.66;;;7.30;100.00
60170;BME280;46042;49.444;6.862;2023-02-17T04:53:12;99389.78;;;7.30;100.00
60170;BME280;46042;49.444;6.862;2023-02-17T04:55:41;99394.16;;;7.30;100.00
60170;BME280;46042;49.444;6.862;2023-02-17T04:58:09;99401.09;;;7.31;100.00
60170;BME280;46042;49.444;6.862;2023-02-17T05:00:36;99399.34;;;7.31;100.00
60170;BME280;46042;49.444;6.862;2023-02-17T05:03:02;99400.19;;;7.32;100.00
60170;BME280;46042;49.444;6.862;2023-02-17T05:05:29;99399.38;;;7.30;100.00
60170;BME280;46042;49.444;6.862;2023-02-17T05:07:56;99400.25;;;7.30;100.00
60170;BME280;46042;49.444;6.862;2023-02-17T05:10:23;99394.28;;;7.26;100.00
60170;BME280;46042;49.444;6.862;2023-02-17T05:12:49;99392.41;;;7.30;100.00
60170;BME280;46042;49.444;6.862;2023-02-17T05:15:19;99401.22;;;7.28;100.00
60170;BME280;46042;49.444;6.862;2023-02-17T05:17:52;99392.44;;;7.29;100.00
60170;BME280;46042;49.444;6.862;2023-02-17T05:20:38;99395.06;;;7.29;100.00
60170;BME280;46042;49.444;6.862;2023-02-17T05:23:13;99395.72;;;7.34;100.00
60170;BME280;46042;49.444;6.862;2023-02-17T05:25:50;99392.44;;;7.29;100.00
60170;BME280;46042;49.444;6.862;2023-02-17T05:28:19;99395.00;;;7.30;100.00
60170;BME280;46042;49.444;6.862;2023-02-17T05:31:10;99396.59;;;7.34;100.00
60170;BME280;46042;49.444;6.862;2023-02-17T05:33:56;99391.41;;;7.33;100.00
60170;BME280;46042;49.444;6.862;2023-02-17T05:36:24;99396.72;;;7.31;100.00
60170;BME280;46042;49.444;6.862;2023-02-17T05:39:12;99394.94;;;7.32;100.00
60170;BME280;46042;49.444;6.862;2023-02-17T05:41:46;99406.34;;;7.31;100.00
60170;BME280;46042;49.444;6.862;2023-02-17T05:44:25;99401.22;;;7.28;100.00
60170;BME280;46042;49.444;6.862;2023-02-17T05:47:05;99396.91;;;7.26;100.00
60170;BME280;46042;49.444;6.862;2023-02-17T05:49:40;99395.97;;;7.28;100.00
60170;BME280;46042;49.444;6.862;2023-02-17T05:52:23;99403.84;;;7.28;100.00
60170;BME280;46042;49.444;6.862;2023-02-17T05:55:13;99404.75;;;7.26;100.00
60170;BME280;46042;49.444;6.862;2023-02-17T06:00:40;99413.34;;;7.30;100.00
60170;BME280;46042;49.444;6.862;2023-02-17T06:03:15;99409.81;;;7.31;100.00
60170;BME280;46042;49.444;6.862;2023-02-17T06:05:46;99408.91;;;7.32;100.00
60170;BME280;46042;49.444;6.862;2023-02-17T06:08:37;99408.00;;;7.33;100.00
60170;BME280;46042;49.444;6.862;2023-02-17T06:11:16;99407.06;;;7.34;100.00
60170;BME280;46042;49.444;6.862;2023-02-17T06:16:24;99398.34;;;7.34;100.00
60170;BME280;46042;49.444;6.862;2023-02-17T06:22:21;99413.22;;;7.33;100.00
60170;BME280;46042;49.444;6.862;2023-02-17T06:25:08;99420.19;;;7.34;100.00
60170;BME280;46042;49.444;6.862;2023-02-17T06:27:45;99414.97;;;7.33;100.00
60170;BME280;46042;49.444;6.862;2023-02-17T06:30:33;99421.88;;;7.35;100.00
60170;BME280;46042;49.444;6.862;2023-02-17T06:33:21;99414.97;;;7.33;100.00
60170;BME280;46042;49.444;6.862;2023-02-17T06:39:15;99434.13;;;7.35;100.00
60170;BME280;46042;49.444;6.862;2023-02-17T06:41:49;99444.59;;;7.35;100.00
60170;BME280;46042;49.444;6.862;2023-02-17T06:44:24;99440.19;;;7.37;100.00
60170;BME280;46042;49.444;6.862;2023-02-17T06:46:56;99450.72;;;7.35;100.00
60170;BME280;46042;49.444;6.862;2023-02-17T06:49:29;99453.28;;;7.37;100.00
60170;BME280;46042;49.444;6.862;2023-02-17T06:52:14;99452.41;;;7.36;100.00
60170;BME280;46042;49.444;6.862;2023-02-17T06:54:52;99455.00;;;7.38;100.00
60170;BME280;46042;49.444;6.862;2023-02-17T06:57:57;99463.69;;;7.38;100.00
60170;BME280;46042;49.444;6.862;2023-02-17T07:03:11;99461.81;;;7.42;100.00
60170;BME280;46042;49.444;6.862;2023-02-17T07:05:55;99467.88;;;7.43;100.00
60170;BME280;46042;49.444;6.862;2023-02-17T07:08:40;99474.84;;;7.44;100.00
60170;BME280;46042;49.444;6.862;2023-02-17T07:11:25;99486.97;;;7.46;100.00
60170;BME280;46042;49.444;6.862;2023-02-17T07:14:16;99475.59;;;7.47;100.00
60170;BME280;46042;49.444;6.862;2023-02-17T07:17:02;99478.19;;;7.47;100.00
60170;BME280;46042;49.444;6.862;2023-02-17T07:19:33;99481.69;;;7.48;100.00
60170;BME280;46042;49.444;6.862;2023-02-17T07:22:09;99477.25;;;7.50;100.00
60170;BME280;46042;49.444;6.862;2023-02-17T07:24:41;99468.47;;;7.51;100.00
60170;BME280;46042;49.444;6.862;2023-02-17T07:27:23;99471.00;;;7.52;100.00
60170;BME280;46042;49.444;6.862;2023-02-17T07:30:09;99464.88;;;7.53;100.00
60170;BME280;46042;49.444;6.862;2023-02-17T07:32:48;99459.63;;;7.53;100.00
60170;BME280;46042;49.444;6.862;2023-02-17T07:35:27;99458.72;;;7.54;100.00
60170;BME280;46042;49.444;6.862;2023-02-17T07:38:00;99460.47;;;7.54;100.00
60170;BME280;46042;49.444;6.862;2023-02-17T07:40:36;99476.97;;;7.56;100.00
60170;BME280;46042;49.444;6.862;2023-02-17T07:43:09;99483.13;;;7.55;100.00
60170;BME280;46042;49.444;6.862;2023-02-17T07:45:48;99496.19;;;7.57;100.00
60170;BME280;46042;49.444;6.862;2023-02-17T07:48:45;99492.72;;;7.56;100.00
60170;BME280;46042;49.444;6.862;2023-02-17T07:51:30;99480.34;;;7.60;100.00
60170;BME280;46042;49.444;6.862;2023-02-17T07:54:03;99489.91;;;7.61;100.00
60170;BME280;46042;49.444;6.862;2023-02-17T07:56:39;99491.56;;;7.63;100.00
60170;BME280;46042;49.444;6.862;2023-02-17T07:59:13;99488.03;;;7.64;100.00
60170;BME280;46042;49.444;6.862;2023-02-17T08:01:49;99491.50;;;7.65;100.00
60170;BME280;46042;49.444;6.862;2023-02-17T08:04:29;99489.75;;;7.65;100.00
60170;BME280;46042;49.444;6.862;2023-02-17T08:07:09;99486.91;;;7.70;100.00
60170;BME280;46042;49.444;6.862;2023-02-17T08:09:48;99499.13;;;7.71;100.00
60170;BME280;46042;49.444;6.862;2023-02-17T08:12:54;99489.44;;;7.73;100.00
60170;BME280;46042;49.444;6.862;2023-02-17T08:15:50;99488.38;;;7.77;100.00
60170;BME280;46042;49.444;6.862;2023-02-17T08:18:22;99481.44;;;7.76;100.00
60170;BME280;46042;49.444;6.862;2023-02-17T08:21:00;99490.13;;;7.77;100.00
60170;BME280;46042;49.444;6.862;2023-02-17T08:23:32;99491.00;;;7.77;100.00
60170;BME280;46042;49.444;6.862;2023-02-17T08:26:06;99490.88;;;7.80;100.00
60170;BME280;46042;49.444;6.862;2023-02-17T08:28:33;99496.97;;;7.81;100.00
60170;BME280;46042;49.444;6.862;2023-02-17T08:30:59;99487.34;;;7.81;100.00
60170;BME280;46042;49.444;6.862;2023-02-17T08:33:28;99495.06;;;7.85;100.00
60170;BME280;46042;49.444;6.862;2023-02-17T08:35:54;99501.19;;;7.85;100.00
60170;BME280;46042;49.444;6.862;2023-02-17T08:38:21;99497.69;;;7.85;100.00
60170;BME280;46042;49.444;6.862;2023-02-17T08:40:48;99498.59;;;7.83;100.00
60170;BME280;46042;49.444;6.862;2023-02-17T08:43:14;99495.97;;;7.83;100.00
60170;BME280;46042;49.444;6.862;2023-02-17T08:45:41;99492.41;;;7.86;100.00
60170;BME280;46042;49.444;6.862;2023-02-17T08:48:08;99489.72;;;7.88;100.00
60170;BME280;46042;49.444;6.862;2023-02-17T08:50:34;99502.03;;;7.86;100.00
60170;BME280;46042;49.444;6.862;2023-02-17T08:53:01;99495.81;;;7.88;100.00
60170;BME280;46042;49.444;6.862;2023-02-17T08:55:28;99505.34;;;7.91;100.00
60170;BME280;46042;49.444;6.862;2023-02-17T08:58:09;99500.09;;;7.91;100.00
60170;BME280;46042;49.444;6.862;2023-02-17T09:00:35;99500.78;;;7.94;100.00
60170;BME280;46042;49.444;6.862;2023-02-17T09:03:02;99503.41;;;7.94;100.00
60170;BME280;46042;49.444;6.862;2023-02-17T09:05:29;99501.66;;;7.95;100.00
60170;BME280;46042;49.444;6.862;2023-02-17T09:07:57;99507.63;;;7.99;100.00
60170;BME280;46042;49.444;6.862;2023-02-17T09:10:24;99509.34;;;8.00;100.00
60170;BME280;46042;49.444;6.862;2023-02-17T09:12:50;99501.38;;;8.01;100.00
60170;BME280;46042;49.444;6.862;2023-02-17T09:15:17;99503.19;;;8.01;100.00
60170;BME280;46042;49.444;6.862;2023-02-17T09:17:44;99507.44;;;8.03;100.00
60170;BME280;46042;49.444;6.862;2023-02-17T09:20:11;99504.69;;;8.06;100.00
60170;BME280;46042;49.444;6.862;2023-02-17T09:22:50;99497.75;;;8.05;100.00
60170;BME280;46042;49.444;6.862;2023-02-17T09:25:18;99504.56;;;8.09;100.00
60170;BME280;46042;49.444;6.862;2023-02-17T09:27:44;99507.97;;;8.11;100.00
60170;BME280;46042;49.444;6.862;2023-02-17T09:30:12;99505.16;;;8.16;100.00
60170;BME280;46042;49.444;6.862;2023-02-17T09:32:40;99506.78;;;8.19;100.00
60170;BME280;46042;49.444;6.862;2023-02-17T09:35:10;99506.72;;;8.20;100.00
60170;BME280;46042;49.444;6.862;2023-02-17T09:37:37;99511.06;;;8.21;100.00
60170;BME280;46042;49.444;6.862;2023-02-17T09:40:05;99507.56;;;8.21;100.00
60170;BME280;46042;49.444;6.862;2023-02-17T09:42:36;99510.16;;;8.22;100.00
60170;BME280;46042;49.444;6.862;2023-02-17T09:45:09;99520.50;;;8.25;100.00
60170;BME280;46042;49.444;6.862;2023-02-17T09:47:45;99517.88;;;8.25;100.00
60170;BME280;46042;49.444;6.862;2023-02-17T09:50:28;99531.78;;;8.28;100.00
60170;BME280;46042;49.444;6.862;2023-02-17T09:55:44;99520.19;;;8.33;100.00
60170;BME280;46042;49.444;6.862;2023-02-17T10:00:46;99524.47;;;8.36;100.00
60170;BME280;46042;49.444;6.862;2023-02-17T10:03:21;99525.09;;;8.41;100.00
60170;BME280;46042;49.444;6.862;2023-02-17T10:11:32;99530.97;;;8.48;100.00
60170;BME280;46042;49.444;6.862;2023-02-17T10:14:05;99540.53;;;8.49;100.00
60170;BME280;46042;49.444;6.862;2023-02-17T10:16:41;99533.53;;;8.49;100.00
60170;BME280;46042;49.444;6.862;2023-02-17T10:19:24;99541.34;;;8.51;100.00
60170;BME280;46042;49.444;6.862;2023-02-17T10:22:03;99534.34;;;8.51;100.00
60170;BME280;46042;49.444;6.862;2023-02-17T10:24:31;99543.06;;;8.52;100.00
60170;BME280;46042;49.444;6.862;2023-02-17T10:27:10;99540.44;;;8.52;100.00
60170;BME280;46042;49.444;6.862;2023-02-17T10:32:24;99544.56;;;8.58;100.00
60170;BME280;46042;49.444;6.862;2023-02-17T10:35:13;99542.81;;;8.58;100.00
60170;BME280;46042;49.444;6.862;2023-02-17T10:38:00;99540.97;;;8.60;100.00
60170;BME280;46042;49.444;6.862;2023-02-17T10:40:28;99543.41;;;8.65;100.00
60170;BME280;46042;49.444;6.862;2023-02-17T10:42:59;99541.66;;;8.64;100.00
60170;BME280;46042;49.444;6.862;2023-02-17T10:45:34;99545.09;;;8.66;100.00
60170;BME280;46042;49.444;6.862;2023-02-17T10:48:18;99556.31;;;8.70;100.00
60170;BME280;46042;49.444;6.862;2023-02-17T10:50:47;99564.13;;;8.71;100.00
60170;BME280;46042;49.444;6.862;2023-02-17T10:53:22;99550.91;;;8.73;100.00
60170;BME280;46042;49.444;6.862;2023-02-17T10:58:58;99557.97;;;8.72;100.00
60170;BME280;46042;49.444;6.862;2023-02-17T11:01:28;99557.81;;;8.75;100.00
60170;BME280;46042;49.444;6.862;2023-02-17T11:04:07;99555.16;;;8.77;100.00
60170;BME280;46042;49.444;6.862;2023-02-17T11:06:41;99555.72;;;8.84;100.00
60170;BME280;46042;49.444;6.862;2023-02-17T11:09:24;99560.13;;;8.83;100.00
60170;BME280;46042;49.444;6.862;2023-02-17T11:12:21;99550.47;;;8.84;100.00
60170;BME280;46042;49.444;6.862;2023-02-17T11:14:52;99537.25;;;8.85;100.00
60170;BME280;46042;49.444;6.862;2023-02-17T11:17:29;99542.38;;;8.88;100.00
60170;BME280;46042;49.444;6.862;2023-02-17T11:20:04;99530.03;;;8.90;100.00
60170;BME280;46042;49.444;6.862;2023-02-17T11:22:38;99529.91;;;8.93;100.00
60170;BME280;46042;49.444;6.862;2023-02-17T11:27:53;99521.00;;;8.96;100.00
60170;BME280;46042;49.444;6.862;2023-02-17T11:30:21;99517.44;;;8.97;100.00
60170;BME280;46042;49.444;6.862;2023-02-17T11:32:49;99517.34;;;9.00;100.00
60170;BME280;46042;49.444;6.862;2023-02-17T11:35:26;99518.03;;;9.04;100.00
60170;BME280;46042;49.444;6.862;2023-02-17T11:38:10;99510.22;;;9.02;100.00
60170;BME280;46042;49.444;6.862;2023-02-17T11:40:37;99511.00;;;9.04;100.00
60170;BME280;46042;49.444;6.862;2023-02-17T11:43:05;99512.63;;;9.07;100.00
60170;BME280;46042;49.444;6.862;2023-02-17T11:46:01;99511.66;;;9.09;100.00
60170;BME280;46042;49.444;6.862;2023-02-17T11:48:37;99514.06;;;9.14;100.00
60170;BME280;46042;49.444;6.862;2023-02-17T11:56:58;99512.16;;;9.18;100.00
60170;BME280;46042;49.444;6.862;2023-02-17T11:59:37;99511.09;;;9.22;100.00
60170;BME280;46042;49.444;6.862;2023-02-17T12:05:04;99510.63;;;9.31;100.00
60170;BME280;46042;49.444;6.862;2023-02-17T12:07:42;99512.28;;;9.34;100.00
60170;BME280;46042;49.444;6.862;2023-02-17T12:13:13;99509.28;;;9.42;100.00
60170;BME280;46042;49.444;6.862;2023-02-17T12:21:00;99515.53;;;9.39;100.00
60170;BME280;46042;49.444;6.862;2023-02-17T12:32:04;99506.38;;;9.48;100.00
60170;BME280;46042;49.444;6.862;2023-02-17T12:34:41;99516.66;;;9.52;100.00
60170;BME280;46042;49.444;6.862;2023-02-17T12:37:17;99516.66;;;9.52;100.00
60170;BME280;46042;49.444;6.862;2023-02-17T12:39:52;99514.81;;;9.54;100.00
60170;BME280;46042;49.444;6.862;2023-02-17T12:42:26;99506.00;;;9.56;100.00
60170;BME280;46042;49.444;6.862;2023-02-17T12:45:03;99511.03;;;9.60;100.00
60170;BME280;46042;49.444;6.862;2023-02-17T12:50:24;99506.34;;;9.67;100.00
60170;BME280;46042;49.444;6.862;2023-02-17T12:52:59;99505.47;;;9.66;100.00
60170;BME280;46042;49.444;6.862;2023-02-17T12:55:38;99500.09;;;9.70;100.00
60170;BME280;46042;49.444;6.862;2023-02-17T12:58:15;99501.03;;;9.68;100.00
60170;BME280;46042;49.444;6.862;2023-02-17T13:00:47;99494.59;;;9.74;100.00
60170;BME280;46042;49.444;6.862;2023-02-17T13:03:17;99488.38;;;9.75;100.00
60170;BME280;46042;49.444;6.862;2023-02-17T13:08:55;99484.56;;;9.82;100.00
60170;BME280;46042;49.444;6.862;2023-02-17T13:11:33;99488.88;;;9.84;100.00
60170;BME280;46042;49.444;6.862;2023-02-17T13:16:48;99494.91;;;9.86;100.00
60170;BME280;46042;49.444;6.862;2023-02-17T13:19:29;99505.44;;;9.86;100.00
60170;BME280;46042;49.444;6.862;2023-02-17T13:21:58;99504.06;;;9.78;100.00
60170;BME280;46042;49.444;6.862;2023-02-17T13:24:31;99496.00;;;9.81;100.00
60170;BME280;46042;49.444;6.862;2023-02-17T13:27:31;99491.56;;;9.82;100.00
60170;BME280;46042;49.444;6.862;2023-02-17T13:32:43;99503.97;;;9.80;100.00
60170;BME280;46042;49.444;6.862;2023-02-17T13:37:42;99503.34;;;9.75;100.00
60170;BME280;46042;49.444;6.862;2023-02-17T13:42:47;99499.00;;;9.74;100.00
60170;BME280;46042;49.444;6.862;2023-02-17T13:47:58;99492.88;;;9.73;100.00
60170;BME280;46042;49.444;6.862;2023-02-17T13:50:34;99486.84;;;9.71;100.00
60170;BME280;46042;49.444;6.862;2023-02-17T13:55:51;99486.22;;;9.66;100.00
60170;BME280;46042;49.444;6.862;2023-02-17T13:58:27;99488.84;;;9.66;100.00
60170;BME280;46042;49.444;6.862;2023-02-17T14:00:55;99479.16;;;9.66;100.00
60170;BME280;46042;49.444;6.862;2023-02-17T14:03:33;99478.28;;;9.67;100.00
60170;BME280;46042;49.444;6.862;2023-02-17T14:06:01;99473.06;;;9.66;100.00
60170;BME280;46042;49.444;6.862;2023-02-17T14:11:17;99480.19;;;9.64;100.00
60170;BME280;46042;49.444;6.862;2023-02-17T14:13:47;99483.75;;;9.63;100.00
60170;BME280;46042;49.444;6.862;2023-02-17T14:16:36;99476.13;;;9.57;100.00
60170;BME280;46042;49.444;6.862;2023-02-17T14:19:04;99475.31;;;9.56;100.00
60170;BME280;46042;49.444;6.862;2023-02-17T14:21:33;99478.75;;;9.57;100.00
60170;BME280;46042;49.444;6.862;2023-02-17T14:24:00;99478.84;;;9.55;100.00
60170;BME280;46042;49.444;6.862;2023-02-17T14:26:43;99477.16;;;9.54;100.00
60170;BME280;46042;49.444;6.862;2023-02-17T14:29:12;99466.63;;;9.54;100.00
60170;BME280;46042;49.444;6.862;2023-02-17T14:31:48;99469.31;;;9.52;100.00
60170;BME280;46042;49.444;6.862;2023-02-17T14:34:30;99465.91;;;9.50;100.00
60170;BME280;46042;49.444;6.862;2023-02-17T14:37:17;99459.88;;;9.48;100.00
60170;BME280;46042;49.444;6.862;2023-02-17T14:39:46;99458.34;;;9.44;100.00
60170;BME280;46042;49.444;6.862;2023-02-17T14:42:12;99440.78;;;9.45;100.00
60170;BME280;46042;49.444;6.862;2023-02-17T14:44:39;99440.00;;;9.43;100.00
60170;BME280;46042;49.444;6.862;2023-02-17T14:47:06;99450.66;;;9.39;100.00
60170;BME280;46042;49.444;6.862;2023-02-17T14:49:32;99441.06;;;9.38;100.00
60170;BME280;46042;49.444;6.862;2023-02-17T14:52:00;99440.16;;;9.39;100.00
60170;BME280;46042;49.444;6.862;2023-02-17T14:54:38;99445.31;;;9.41;100.00
60170;BME280;46042;49.444;6.862;2023-02-17T14:57:06;99448.75;;;9.43;100.00
60170;BME280;46042;49.444;6.862;2023-02-17T14:59:33;99437.22;;;9.46;100.00
60170;BME280;46042;49.444;6.862;2023-02-17T15:01:59;99454.94;;;9.42;100.00
60170;BME280;46042;49.444;6.862;2023-02-17T15:04:26;99446.94;;;9.44;100.00
60170;BME280;46042;49.444;6.862;2023-02-17T15:06:53;99449.69;;;9.42;100.00
60170;BME280;46042;49.444;6.862;2023-02-17T15:09:27;99457.69;;;9.39;100.00
60170;BME280;46042;49.444;6.862;2023-02-17T15:11:54;99455.84;;;9.41;100.00
60170;BME280;46042;49.444;6.862;2023-02-17T15:14:22;99459.47;;;9.38;100.00
60170;BME280;46042;49.444;6.862;2023-02-17T15:16:49;99455.94;;;9.39;100.00
60170;BME280;46042;49.444;6.862;2023-02-17T15:19:16;99453.50;;;9.35;100.00